Chester, Maryland
Current Conditions -  °F | °C
As of 9:54 AM on Tuesday 21 Oct 2014 (Local Time) from KNAK Reporting Station
Few Clouds Few Clouds  
Wind Chill: 59°   Ceiling: Unl
Heat Index: 59°   Visibility: 10mi
Dew Point: 49°   Wind: 0mph
Humidity: 69%   Direction: NA
Pressure: 29.89"   Gusts: NA
Location:  38.98°N, 76.29°W
Report Text: KNAK 211354Z AUTO 00000KT 10SM FEW110 15/09 A2989 RMK AO2 SLP122 T01500094
Loading
Personal Weather Stations






























Interactive Weather Map
Tropical Storm Tracking
New forecast layout! Learn more

10-Day Weather Forecast

Advertisements
Track Severe Weather on mobile